Time;durP1;ratioP1;P1;durP2;ratioP2;P2;SDS_P1;SDS_P2;PMS_P1;PMS_P2;Temp;Humidity;BMP_temperature;BMP_pressure;BME280_temperature;BME280_humidity;BME280_pressure;Samples;Min_cycle;Max_cycle;Signal;HPM_P1;HPM_P2
2021/07/06 00:01:26;;;;;;;;;;;;;;;19.61;83.59;99665.56;1759919;81;20128;-72
2021/07/06 00:03:53;;;;;;;;;;;;;;;19.58;83.90;99673.00;1759993;80;20439;-76
2021/07/06 00:06:20;;;;;;;;;;;;;;;19.54;84.06;99676.43;1759968;81;20474;-75
2021/07/06 00:08:49;;;;;;;;;;;;;;;19.52;84.29;99681.52;1760106;81;20483;-76
2021/07/06 00:11:15;;;;;;;;;;;;;;;19.48;84.54;99676.17;1760188;81;21140;-76
2021/07/06 00:13:43;;;;;;;;;;;;;;;19.42;84.74;99682.88;1759975;81;20133;-75
2021/07/06 00:16:10;;;;;;;;;;;;;;;19.39;84.88;99683.67;1760125;81;20133;-76
2021/07/06 00:18:37;;;;;;;;;;;;;;;19.36;85.09;99688.77;1760246;81;20176;-75
2021/07/06 00:21:04;;;;;;;;;;;;;;;19.34;85.23;99689.40;1759974;81;20148;-75
2021/07/06 00:23:31;;;;;;;;;;;;;;;19.29;85.41;99686.38;1759989;81;21112;-74
2021/07/06 00:25:57;;;;;;;;;;;;;;;19.26;85.58;99688.83;1759200;81;20164;-76
2021/07/06 00:28:24;;;;;;;;;;;;;;;19.25;85.73;99691.61;1759551;80;20121;-74
2021/07/06 00:30:51;;;;;;;;;;;;;;;19.24;85.78;99696.55;1760243;81;20133;-75
2021/07/06 00:33:18;;;;;;;;;;;;;;;19.23;85.84;99684.33;1759986;81;20137;-75
2021/07/06 00:35:45;;;;;;;;;;;;;;;19.25;85.85;99690.30;1760327;81;21108;-75
2021/07/06 00:38:18;;;;;;;;;;;;;;;19.25;85.82;99683.20;1760001;81;20137;-75
2021/07/06 00:40:45;;;;;;;;;;;;;;;19.26;85.81;99689.31;1760298;81;20152;-75
2021/07/06 00:43:11;;;;;;;;;;;;;;;19.25;85.75;99685.84;1760012;81;20418;-74
2021/07/06 00:45:38;;;;;;;;;;;;;;;19.23;85.90;99688.30;1760256;81;20105;-74
2021/07/06 00:48:05;;;;;;;;;;;;;;;19.23;85.87;99688.30;1759958;81;21012;-74
2021/07/06 00:50:32;;;;;;;;;;;;;;;19.20;85.90;99697.34;1760173;81;20141;-74
2021/07/06 00:52:59;;;;;;;;;;;;;;;19.19;85.94;99695.67;1759849;80;20133;-76
2021/07/06 00:55:26;;;;;;;;;;;;;;;19.15;86.10;99696.16;1759939;81;20149;-75
2021/07/06 00:57:53;;;;;;;;;;;;;;;19.13;86.16;99698.94;1760090;81;20117;-74
2021/07/06 01:00:21;;;;;;;;;;;;;;;19.11;86.28;99702.70;1760034;81;21151;-74
2021/07/06 01:02:50;;;;;;;;;;;;;;;19.08;86.37;99692.45;1759836;80;20137;-74
2021/07/06 01:05:19;;;;;;;;;;;;;;;19.07;86.42;99696.89;1760004;81;20117;-75
2021/07/06 01:07:46;;;;;;;;;;;;;;;19.06;86.43;99697.04;1759971;81;20152;-75
2021/07/06 01:10:14;;;;;;;;;;;;;;;19.04;86.53;99697.67;1760117;81;20117;-76
2021/07/06 01:12:42;;;;;;;;;;;;;;;19.01;86.57;99699.28;1759976;81;21830;-75
2021/07/06 01:15:11;;;;;;;;;;;;;;;18.96;86.74;99705.00;1760037;81;20133;-75
2021/07/06 01:17:39;;;;;;;;;;;;;;;18.93;86.85;99702.66;1760073;81;20177;-75
2021/07/06 01:20:10;;;;;;;;;;;;;;;18.90;87.00;99709.55;1760162;81;20544;-75
2021/07/06 01:22:37;;;;;;;;;;;;;;;18.87;87.15;99705.39;1757213;81;20129;-75
2021/07/06 01:25:05;;;;;;;;;;;;;;;18.83;87.38;99706.66;1760208;81;20989;-75
2021/07/06 01:27:32;;;;;;;;;;;;;;;18.79;87.53;99705.81;1760009;80;20467;-75
2021/07/06 01:29:59;;;;;;;;;;;;;;;18.74;87.84;99710.69;1760112;81;20152;-75
2021/07/06 01:32:28;;;;;;;;;;;;;;;18.72;88.05;99710.84;1760436;81;20468;-75
2021/07/06 01:34:56;;;;;;;;;;;;;;;18.72;88.19;99716.59;1760148;81;20129;-74
2021/07/06 01:37:22;;;;;;;;;;;;;;;18.71;88.29;99721.04;1760416;81;21095;-75
2021/07/06 01:39:49;;;;;;;;;;;;;;;18.70;88.41;99718.55;1760207;80;20402;-75
2021/07/06 01:42:19;;;;;;;;;;;;;;;18.67;88.47;99729.39;1760391;81;20133;-72
2021/07/06 01:44:46;;;;;;;;;;;;;;;18.64;88.61;99726.06;1760232;81;20117;-72
2021/07/06 01:47:13;;;;;;;;;;;;;;;18.62;88.74;99729.81;1760487;81;20117;-75
2021/07/06 01:49:40;;;;;;;;;;;;;;;18.60;88.83;99727.81;1760125;81;21948;-76
2021/07/06 01:52:07;;;;;;;;;;;;;;;18.58;88.94;99727.09;1760331;81;20133;-75
2021/07/06 01:54:33;;;;;;;;;;;;;;;18.57;89.08;99730.22;1760133;81;20133;-74
2021/07/06 01:57:02;;;;;;;;;;;;;;;18.59;89.19;99734.03;1760081;81;20129;-76
2021/07/06 01:59:29;;;;;;;;;;;;;;;18.59;89.11;99742.77;1760181;81;20156;-75
2021/07/06 02:01:57;;;;;;;;;;;;;;;18.60;89.11;99742.31;1760086;81;21966;-76
2021/07/06 02:04:23;;;;;;;;;;;;;;;18.61;89.13;99740.02;1758462;80;20133;-75
2021/07/06 02:06:50;;;;;;;;;;;;;;;18.63;89.10;99741.54;1732991;81;20439;-76
2021/07/06 02:09:18;;;;;;;;;;;;;;;18.66;88.97;99740.42;1757918;81;20390;-74
2021/07/06 02:11:45;;;;;;;;;;;;;;;18.65;88.85;99739.59;1745637;81;20096;-75
2021/07/06 02:14:13;;;;;;;;;;;;;;;18.68;88.84;99738.96;1735374;81;21132;-75
2021/07/06 02:16:41;;;;;;;;;;;;;;;18.71;88.70;99750.05;1732941;83;20121;-75
2021/07/06 02:19:07;;;;;;;;;;;;;;;18.72;88.69;99750.40;1732864;83;20124;-75
2021/07/06 02:21:34;;;;;;;;;;;;;;;18.72;88.66;99753.52;1733035;83;20450;-74
2021/07/06 02:24:01;;;;;;;;;;;;;;;18.74;88.61;99755.53;1731638;81;20105;-75
2021/07/06 02:26:27;;;;;;;;;;;;;;;18.81;88.53;99755.27;1747064;81;20782;-74
2021/07/06 02:28:54;;;;;;;;;;;;;;;18.99;88.18;99751.72;1747397;82;20099;-75
2021/07/06 02:31:21;;;;;;;;;;;;;;;19.28;87.37;99751.55;1747545;82;20388;-74
2021/07/06 02:33:48;;;;;;;;;;;;;;;19.63;86.09;99761.34;1747286;81;20433;-74
2021/07/06 02:36:15;;;;;;;;;;;;;;;20.05;84.30;99762.03;1747348;81;20091;-75
2021/07/06 02:38:42;;;;;;;;;;;;;;;20.44;82.14;99760.34;1747312;82;21960;-75
2021/07/06 02:41:09;;;;;;;;;;;;;;;20.82;80.30;99761.71;1747244;81;20091;-74
2021/07/06 02:43:38;;;;;;;;;;;;;;;21.14;78.61;99757.89;1747623;82;20091;-75
2021/07/06 02:46:05;;;;;;;;;;;;;;;21.49;76.95;99755.53;1747405;82;20119;-75
2021/07/06 02:48:32;;;;;;;;;;;;;;;21.77;75.23;99765.83;1747568;82;20092;-75
2021/07/06 02:50:58;;;;;;;;;;;;;;;21.99;73.94;99768.34;1747319;82;20567;-76
2021/07/06 02:53:25;;;;;;;;;;;;;;;22.20;73.05;99772.16;1747308;82;20071;-75
2021/07/06 02:55:52;;;;;;;;;;;;;;;22.46;71.87;99767.14;1747296;82;20099;-76
2021/07/06 02:58:19;;;;;;;;;;;;;;;22.69;70.70;99781.36;1747579;82;20124;-76
2021/07/06 03:00:46;;;;;;;;;;;;;;;22.91;70.00;99775.84;1747338;82;20115;-76
2021/07/06 03:03:12;;;;;;;;;;;;;;;23.16;69.01;99777.41;1747335;81;21197;-75
2021/07/06 03:05:39;;;;;;;;;;;;;;;23.38;68.08;99773.13;1744190;82;20131;-75
2021/07/06 03:08:06;;;;;;;;;;;;;;;23.59;67.25;99763.25;1744637;82;20095;-75
2021/07/06 03:10:40;;;;;;;;;;;;;;;23.85;66.00;99768.20;1744556;82;20091;-74
2021/07/06 03:13:08;;;;;;;;;;;;;;;24.11;64.93;99772.63;1747446;81;20116;-74
2021/07/06 03:15:34;;;;;;;;;;;;;;;24.29;64.18;99771.02;1753752;81;21107;-75
2021/07/06 03:18:02;;;;;;;;;;;;;;;24.39;63.39;99773.42;1752648;81;20152;-75
2021/07/06 03:20:29;;;;;;;;;;;;;;;24.44;63.14;99776.34;1755069;81;20129;-75
2021/07/06 03:22:56;;;;;;;;;;;;;;;24.53;62.86;99785.91;1761310;81;20439;-75
2021/07/06 03:25:25;;;;;;;;;;;;;;;24.69;62.45;99782.26;1763556;81;20117;-74
2021/07/06 03:27:54;;;;;;;;;;;;;;;24.92;62.04;99782.98;1763329;81;20133;-74
2021/07/06 03:30:26;;;;;;;;;;;;;;;25.18;61.12;99779.37;1763182;81;20121;-74
2021/07/06 03:32:54;;;;;;;;;;;;;;;25.45;60.26;99785.00;1763426;81;20133;-75
2021/07/06 03:35:21;;;;;;;;;;;;;;;25.71;59.31;99781.81;1763611;81;20148;-74
2021/07/06 03:37:47;;;;;;;;;;;;;;;25.93;58.64;99783.98;1763201;81;20192;-74
2021/07/06 03:40:16;;;;;;;;;;;;;;;26.15;57.91;99790.43;1763168;81;21042;-73
2021/07/06 03:42:43;;;;;;;;;;;;;;;26.25;57.00;99797.61;1763150;80;20160;-75
2021/07/06 03:45:11;;;;;;;;;;;;;;;26.27;57.06;99801.42;1763309;81;20125;-75
2021/07/06 03:47:38;;;;;;;;;;;;;;;26.41;56.33;99809.86;1763157;81;20152;-74
2021/07/06 03:50:06;;;;;;;;;;;;;;;26.47;56.33;99804.25;1763337;81;20153;-76
2021/07/06 03:52:33;;;;;;;;;;;;;;;26.60;55.61;99807.03;1763180;80;21119;-75
2021/07/06 03:54:59;;;;;;;;;;;;;;;26.71;54.97;99806.49;1763183;81;20129;-75
2021/07/06 03:57:30;;;;;;;;;;;;;;;26.75;54.93;99810.42;1763240;80;20128;-76
2021/07/06 04:00:01;;;;;;;;;;;;;;;26.80;55.09;99809.81;1763265;80;20454;-75
2021/07/06 04:02:27;;;;;;;;;;;;;;;26.95;54.80;99808.36;1762989;81;20165;-75
2021/07/06 04:04:54;;;;;;;;;;;;;;;27.08;53.85;99809.81;1747977;81;21156;-75
2021/07/06 04:07:21;;;;;;;;;;;;;;;27.05;53.49;99810.20;1749274;81;20087;-73
2021/07/06 04:09:49;;;;;;;;;;;;;;;26.93;53.78;99809.07;1746637;81;20095;-72
2021/07/06 04:12:16;;;;;;;;;;;;;;;26.89;53.95;99813.47;1748423;81;20098;-75
2021/07/06 04:14:43;;;;;;;;;;;;;;;27.01;54.19;99811.11;1747683;82;20114;-76
2021/07/06 04:17:10;;;;;;;;;;;;;;;27.27;53.89;99803.70;1749190;81;21743;-77
2021/07/06 04:19:37;;;;;;;;;;;;;;;27.49;52.56;99810.59;1749786;81;20124;-75
2021/07/06 04:22:04;;;;;;;;;;;;;;;27.63;52.31;99807.45;1748883;81;20180;-76
2021/07/06 04:24:31;;;;;;;;;;;;;;;27.67;52.24;99808.70;1742547;81;20157;-74
2021/07/06 04:26:58;;;;;;;;;;;;;;;27.81;51.91;99806.89;1748061;81;20169;-74
2021/07/06 04:29:25;;;;;;;;;;;;;;;28.00;51.04;99805.25;1741539;81;21550;-76
2021/07/06 04:31:53;;;;;;;;;;;;;;;28.06;50.75;99804.44;1732832;83;20121;-76
2021/07/06 04:34:21;;;;;;;;;;;;;;;28.08;50.78;99811.75;1732858;83;20117;-76
2021/07/06 04:36:49;;;;;;;;;;;;;;;28.09;50.79;99810.72;1732794;83;20146;-74
2021/07/06 04:39:16;;;;;;;;;;;;;;;28.09;50.28;99819.58;1732935;83;20085;-75
2021/07/06 04:41:44;;;;;;;;;;;;;;;27.99;51.15;99820.48;1732789;83;21137;-74
2021/07/06 04:44:11;;;;;;;;;;;;;;;28.03;51.41;99820.91;1732667;83;20411;-76
2021/07/06 04:46:39;;;;;;;;;;;;;;;28.21;50.81;99817.16;1732827;83;20144;-75
2021/07/06 04:49:06;;;;;;;;;;;;;;;28.35;50.78;99816.13;1732751;83;20142;-75
2021/07/06 04:51:33;;;;;;;;;;;;;;;28.59;50.36;99815.17;1725638;81;20114;-76
2021/07/06 04:54:00;;;;;;;;;;;;;;;28.78;49.42;99815.16;1701805;84;21813;-75
2021/07/06 04:56:28;;;;;;;;;;;;;;;28.84;48.96;99810.30;1743834;81;20099;-72
2021/07/06 04:58:55;;;;;;;;;;;;;;;28.88;49.05;99808.85;1740534;81;33384;-73
2021/07/06 05:01:24;;;;;;;;;;;;;;;28.90;49.59;99809.98;1726062;81;20163;-72
2021/07/06 05:03:54;;;;;;;5.85;4.95;;;;;;;29.13;48.88;99811.67;1727059;81;20466;-76
2021/07/06 05:06:21;;;;;;;5.95;4.87;;;;;;;29.22;48.37;99810.90;1720121;81;21144;-72
2021/07/06 05:08:49;;;;;;;4.90;4.40;;;;;;;29.31;48.28;99817.67;1722876;81;20978;-69
2021/07/06 05:11:17;;;;;;;5.80;4.67;;;;;;;29.42;47.68;99815.70;1735347;81;21521;-69
2021/07/06 05:13:46;;;;;;;6.92;4.35;;;;;;;29.38;47.82;99816.31;1708009;82;20952;-73
2021/07/06 05:16:13;;;;;;;5.67;4.22;;;;;;;29.40;47.92;99816.41;1730311;82;20892;-74
2021/07/06 05:18:40;;;;;;;7.40;4.92;;;;;;;29.53;47.60;99817.72;1744784;81;21512;-76
2021/07/06 05:21:08;;;;;;;5.78;4.40;;;;;;;29.55;47.92;99813.48;1723346;81;21003;-70
2021/07/06 05:23:36;;;;;;;5.17;4.78;;;;;;;29.71;47.92;99813.48;1743456;81;21699;-69
2021/07/06 05:26:03;;;;;;;6.00;4.28;;;;;;;29.84;47.82;99811.55;1721969;81;21024;-73
2021/07/06 05:28:30;;;;;;;5.55;3.98;;;;;;;29.95;47.62;99815.41;1721119;81;21019;-73
2021/07/06 05:30:57;;;;;;;6.55;4.85;;;;;;;30.14;47.46;99814.45;1728025;81;21147;-71
2021/07/06 05:33:25;;;;;;;5.20;4.70;;;;;;;30.43;46.64;99815.64;1730105;81;20856;-75
2021/07/06 05:35:53;;;;;;;6.30;4.50;;;;;;;30.65;45.74;99817.45;1721713;82;21708;-74
2021/07/06 05:38:22;;;;;;;6.78;4.30;;;;;;;30.79;45.90;99819.48;1716526;81;20957;-70
2021/07/06 05:40:57;;;;;;;9.03;4.70;;;;;;;30.94;44.81;99820.45;1709166;82;20965;-75
2021/07/06 05:43:26;;;;;;;6.10;3.98;;;;;;;30.98;45.13;99817.09;1731908;81;21541;-74
2021/07/06 05:45:54;;;;;;;5.72;4.15;;;;;;;30.99;44.53;99824.63;1729035;81;21008;-73
2021/07/06 05:48:21;;;;;;;4.95;4.42;;;;;;;30.83;44.70;99815.28;1740524;81;20995;-74
2021/07/06 05:50:50;;;;;;;4.40;4.00;;;;;;;30.75;45.07;99823.14;1714573;82;21608;-73
2021/07/06 05:53:17;;;;;;;5.33;4.67;;;;;;;30.70;45.10;99820.81;1706389;82;21094;-67
2021/07/06 05:55:45;;;;;;;4.25;3.83;;;;;;;30.63;45.39;99822.74;1730039;81;21151;-72
2021/07/06 05:58:13;;;;;;;5.47;3.80;;;;;;;30.60;45.48;99823.19;1744028;81;20918;-68
2021/07/06 06:00:40;;;;;;;4.20;3.80;;;;;;;30.63;45.65;99826.77;1733169;81;20952;-76
2021/07/06 06:03:09;;;;;;;4.05;3.75;;;;;;;30.65;44.96;99830.89;1747741;81;21045;-69
2021/07/06 06:05:38;;;;;;;4.60;4.20;;;;;;;30.70;45.33;99828.36;1741922;80;20966;-79
2021/07/06 06:08:06;;;;;;;4.40;4.00;;;;;;;30.73;44.77;99823.88;1726743;81;21817;-73
2021/07/06 06:10:33;;;;;;;6.53;4.17;;;;;;;30.71;44.72;99825.16;1713262;82;20930;-76
2021/07/06 06:13:00;;;;;;;4.33;3.92;;;;;;;30.70;45.21;99825.67;1716680;81;20986;-73
2021/07/06 06:15:28;;;;;;;4.55;4.15;;;;;;;30.81;45.49;99826.78;1774802;78;21061;-74
2021/07/06 06:17:56;;;;;;;4.42;4.00;;;;;;;31.04;45.03;99826.95;1783992;79;20945;-75
2021/07/06 06:20:23;;;;;;;4.25;3.85;;;;;;;31.16;44.22;99828.41;1797690;79;21179;-77
2021/07/06 06:22:51;;;;;;;4.37;3.90;;;;;;;31.18;44.55;99830.88;1801922;79;21482;-80
2021/07/06 06:25:18;;;;;;;5.72;4.00;;;;;;;31.22;44.75;99825.32;1780716;78;20985;-75
2021/07/06 06:27:45;;;;;;;4.87;4.47;;;;;;;31.36;44.24;99832.19;1782824;78;20986;-77
2021/07/06 06:30:14;;;;;;;4.72;4.12;;;;;;;31.36;43.58;99824.12;1788940;79;20986;-71
2021/07/06 06:32:42;;;;;;;4.62;4.08;;;;;;;31.36;43.47;99832.19;1779701;79;21496;-69
2021/07/06 06:35:10;;;;;;;3.95;3.62;;;;;;;31.21;44.00;99829.05;1771979;79;20938;-68
2021/07/06 06:37:39;;;;;;;6.70;3.95;;;;;;;31.09;44.40;99827.63;1768931;79;20955;-68
2021/07/06 06:40:07;;;;;;;6.58;4.78;;;;;;;31.03;44.46;99832.56;1764415;79;20947;-70
2021/07/06 06:42:35;;;;;;;4.42;4.03;;;;;;;31.06;44.86;99832.94;1770525;79;21027;-71
2021/07/06 06:45:04;;;;;;;4.35;3.87;;;;;;;31.22;45.11;99836.08;1771862;79;21095;-69
2021/07/06 06:47:34;;;;;;;3.75;3.40;;;;;;;31.32;44.52;99834.51;1782018;79;20919;-74
2021/07/06 06:50:05;;;;;;;5.47;4.20;;;;;;;31.41;44.47;99835.85;1788094;79;21008;-77
2021/07/06 06:52:33;;;;;;;5.22;4.70;;;;;;;31.44;44.10;99832.70;1771223;79;21843;-77
2021/07/06 06:55:00;;;;;;;3.80;3.50;;;;;;;31.25;44.18;99833.77;1778959;79;21042;-75
2021/07/06 06:57:27;;;;;;;4.00;3.70;;;;;;;31.15;44.50;99831.63;1791019;79;21743;-75
2021/07/06 06:59:55;;;;;;;6.42;3.80;;;;;;;31.09;44.52;99845.94;1772684;79;21013;-79
2021/07/06 07:02:28;;;;;;;5.40;3.70;;;;;;;30.98;44.55;99839.95;1792988;78;20965;-72
2021/07/06 07:04:52;;;;;;;5.62;4.00;;;;;;;30.87;45.05;99842.55;1775714;79;20915;-74
2021/07/06 07:07:20;;;;;;;8.45;4.12;;;;;;;30.82;44.96;99840.52;1800887;79;21598;-69
2021/07/06 07:09:48;;;;;;;4.40;4.10;;;;;;;30.82;45.45;99843.21;1791180;79;21117;-74
2021/07/06 07:12:16;;;;;;;5.45;3.85;;;;;;;30.95;45.11;99839.57;1790666;79;20930;-70
2021/07/06 07:14:45;;;;;;;4.40;4.00;;;;;;;31.14;45.27;99842.09;1786684;79;21481;-70
2021/07/06 07:17:14;;;;;;;3.85;3.55;;;;;;;31.25;44.57;99842.36;1793090;79;20979;-69
2021/07/06 07:19:42;;;;;;;6.03;3.92;;;;;;;31.20;44.79;99847.06;1797235;79;20907;-71
2021/07/06 07:22:09;;;;;;;7.33;3.92;;;;;;;31.19;44.95;99839.25;1788347;80;21139;-72
2021/07/06 07:24:36;;;;;;;4.25;3.85;;;;;;;31.23;45.04;99841.76;1803722;78;20874;-69
2021/07/06 07:27:04;;;;;;;4.65;3.83;;;;;;;31.25;44.79;99839.67;1794497;79;20937;-71
2021/07/06 07:29:32;;;;;;;5.05;3.77;;;;;;;31.16;45.61;99844.03;1806443;79;20989;-71
2021/07/06 07:32:00;;;;;;;4.40;4.08;;;;;;;31.30;45.44;99845.20;1803482;79;20910;-73
2021/07/06 07:34:27;;;;;;;4.33;3.27;;;;;;;31.46;44.46;99845.41;1799303;78;21305;-76
2021/07/06 07:36:54;;;;;;;4.05;3.72;;;;;;;31.57;44.27;99861.86;1811936;78;20941;-71
2021/07/06 07:39:21;;;;;;;3.77;3.47;;;;;;;31.46;44.33;99839.20;1803996;78;20895;-77
2021/07/06 07:41:48;;;;;;;4.00;3.70;;;;;;;31.42;44.36;99843.40;1790099;78;21497;-72
2021/07/06 07:44:15;;;;;;;3.77;3.47;;;;;;;31.33;44.25;99843.41;1801939;79;21061;-68
2021/07/06 07:46:42;;;;;;;4.35;3.95;;;;;;;31.30;44.15;99846.55;1796897;79;21116;-71
2021/07/06 07:49:09;;;;;;;5.00;3.65;;;;;;;31.31;44.26;99853.05;1790241;78;21010;-69
2021/07/06 07:51:36;;;;;;;4.58;4.15;;;;;;;31.25;44.35;99841.83;1791419;80;20910;-68
2021/07/06 07:54:04;;;;;;;7.25;5.75;;;;;;;31.20;45.00;99838.17;1780302;78;20914;-73
2021/07/06 07:56:31;;;;;;;7.05;3.30;;;;;;;31.30;44.72;99843.85;1803566;78;21508;-74
2021/07/06 07:58:58;;;;;;;3.95;3.55;;;;;;;31.36;44.66;99845.64;1800907;79;21506;-67
2021/07/06 08:01:25;;;;;;;3.87;3.58;;;;;;;31.42;44.41;99843.40;1791818;79;20965;-68
2021/07/06 08:03:52;;;;;;;6.35;3.45;;;;;;;31.49;44.57;99847.66;1778231;78;20978;-70
2021/07/06 08:06:21;;;;;;;4.45;3.72;;;;;;;31.43;44.16;99849.90;1773787;79;20942;-74
2021/07/06 08:08:50;;;;;;;5.33;3.90;;;;;;;31.30;44.55;99853.27;1784938;79;20981;-69
2021/07/06 08:11:21;;;;;;;4.62;3.52;;;;;;;31.22;44.53;99858.42;1784788;78;20949;-71
2021/07/06 08:13:50;;;;;;;5.78;3.80;;;;;;;31.19;44.86;99857.55;1759278;79;21623;-74
2021/07/06 08:16:26;;;;;;;3.40;3.20;;;;;;;31.20;45.07;99857.00;1775198;79;21409;-73
2021/07/06 08:18:52;;;;;;;5.03;3.70;;;;;;;31.30;44.80;99858.13;1777911;79;21069;-67
2021/07/06 08:21:22;;;;;;;6.25;3.58;;;;;;;31.36;43.98;99858.58;1779003;79;20980;-71
2021/07/06 08:23:55;;;;;;;6.75;4.12;;;;;;;31.32;44.10;99861.94;1769014;80;21840;-73
2021/07/06 08:26:23;;;;;;;5.25;3.58;;;;;;;31.29;44.73;99850.28;1783335;79;20938;-73
2021/07/06 08:28:52;;;;;;;4.40;4.00;;;;;;;31.39;44.31;99862.16;1796247;79;20926;-72
2021/07/06 08:31:20;;;;;;;3.85;3.55;;;;;;;31.29;44.37;99859.70;1785820;79;20911;-72
2021/07/06 08:33:49;;;;;;;4.05;3.72;;;;;;;31.19;44.43;99862.11;1801138;79;21570;-68
2021/07/06 08:36:17;;;;;;;5.55;3.33;;;;;;;31.13;43.97;99866.00;1784606;78;21926;-70
2021/07/06 08:38:45;;;;;;;6.03;3.92;;;;;;;31.03;44.76;99867.52;1794060;78;20947;-74
2021/07/06 08:41:13;;;;;;;3.83;3.40;;;;;;;30.91;45.19;99866.08;1800193;78;21402;-71
2021/07/06 08:43:42;;;;;;;5.97;3.55;;;;;;;30.84;45.25;99858.08;1802610;78;21615;-76
2021/07/06 08:46:14;;;;;;;5.40;3.55;;;;;;;30.82;45.64;99864.72;1809179;78;21517;-75
2021/07/06 08:48:41;;;;;;;4.40;3.20;;;;;;;30.79;45.09;99861.95;1761119;80;21948;-73
2021/07/06 08:51:11;;;;;;;5.08;3.87;;;;;;;30.64;45.25;99864.19;1802513;79;21564;-75
2021/07/06 08:53:39;;;;;;;3.52;3.33;;;;;;;30.42;46.50;99858.33;1789684;78;20974;-75
2021/07/06 08:56:06;;;;;;;3.75;3.45;;;;;;;30.22;46.27;99856.34;1791660;79;20981;-71
2021/07/06 08:58:33;;;;;;;3.80;3.45;;;;;;;30.09;46.29;99862.62;1784126;79;20978;-73
2021/07/06 09:01:00;;;;;;;6.65;3.90;;;;;;;29.96;46.91;99855.16;1788088;79;21116;-72
2021/07/06 09:03:29;;;;;;;4.60;3.80;;;;;;;29.81;47.48;99858.95;1780259;79;21465;-77
2021/07/06 09:06:09;;;;;;;5.47;3.95;;;;;;;29.68;47.88;99861.69;1765428;78;20969;-74
2021/07/06 09:08:34;;;;;;;4.75;4.05;;;;;;;29.55;48.11;99874.38;1772729;79;20916;-72
2021/07/06 09:11:13;;;;;;;4.60;3.92;;;;;;;29.44;48.69;99870.48;1769124;79;20966;-71
2021/07/06 09:13:40;;;;;;;6.03;3.87;;;;;;;29.46;48.74;99871.09;1782904;79;21108;-74
2021/07/06 09:16:09;;;;;;;5.20;3.83;;;;;;;29.50;48.55;99872.33;1763113;79;21555;-70
2021/07/06 09:18:38;;;;;;;5.60;4.08;;;;;;;29.44;49.00;99873.99;1711198;80;20942;-69
2021/07/06 09:21:08;;;;;;;4.78;3.50;;;;;;;29.41;48.58;99874.42;1768508;79;21609;-73
2021/07/06 09:23:44;;;;;;;4.05;3.65;;;;;;;29.48;48.43;99877.91;1766939;79;21513;-68
2021/07/06 09:26:19;;;;;;;5.75;4.10;;;;;;;29.52;47.99;99879.13;1756509;79;21076;-72
2021/07/06 09:28:55;;;;;;;;;;;;;;;29.43;48.17;99880.91;1766638;80;20998;-74
2021/07/06 09:31:32;;;;;;;;;;;;;;;29.34;48.83;99876.78;1773078;79;20132;-75
2021/07/06 09:34:11;;;;;;;;;;;;;;;29.35;48.75;99865.84;1765538;79;20151;-75
2021/07/06 09:36:50;;;;;;;;;;;;;;;29.40;48.72;99872.73;1771372;79;20088;-78
2021/07/06 09:39:22;;;;;;;;;;;;;;;29.37;49.34;99879.86;1770553;79;21014;-76
2021/07/06 09:42:03;;;;;;;;;;;;;;;29.27;49.36;99872.77;1771029;79;20110;-79
2021/07/06 09:44:43;;;;;;;;;;;;;;;29.23;49.37;99878.25;1757630;79;20201;-73
2021/07/06 09:47:13;;;;;;;;;;;;;;;29.19;49.29;99878.39;1714816;81;20185;-74
2021/07/06 09:49:43;;;;;;;;;;;;;;;29.17;49.21;99872.42;1725389;81;20380;-75
2021/07/06 09:52:18;;;;;;;;;;;;;;;29.09;48.17;99865.42;1722314;81;21176;-72
2021/07/06 09:54:49;;;;;;;;;;;;;;;29.05;48.51;99870.89;1726421;81;20103;-74
2021/07/06 09:57:29;;;;;;;;;;;;;;;29.10;48.92;99875.62;1738507;82;20119;-73
2021/07/06 09:59:59;;;;;;;;;;;;;;;29.11;48.90;99873.25;1740823;82;20122;-67
2021/07/06 10:02:27;;;;;;;;;;;;;;;28.91;49.57;99857.20;1731869;81;20150;-69
2021/07/06 10:04:56;;;;;;;;;;;;;;;28.83;49.71;99861.43;1732953;82;20971;-71
2021/07/06 10:07:26;;;;;;;;;;;;;;;28.81;49.68;99860.78;1761458;80;20098;-70
2021/07/06 10:09:53;;;;;;;;;;;;;;;28.81;49.95;99862.13;1767516;80;20943;-71
2021/07/06 10:12:24;;;;;;;;;;;;;;;28.78;49.97;99858.03;1774169;80;20104;-72
2021/07/06 10:14:53;;;;;;;;;;;;;;;28.80;50.43;99868.00;1762073;80;20106;-71
2021/07/06 10:17:21;;;;;;;;;;;;;;;28.79;49.85;99862.88;1761809;80;21873;-74
2021/07/06 10:19:49;;;;;;;;;;;;;;;28.80;49.85;99868.52;1770739;80;20145;-69
2021/07/06 10:22:16;;;;;;;;;;;;;;;28.88;50.24;99854.94;1757176;80;20095;-79
2021/07/06 10:24:45;;;;;;;;;;;;;;;28.96;51.00;99861.94;1758524;80;20116;-69
2021/07/06 10:27:23;;;;;;;;;;;;;;;28.99;50.15;99869.56;1757946;80;20157;-71
2021/07/06 10:30:17;;;;;;;;;;;;;;;28.99;50.29;99882.97;1763090;80;21157;-72
2021/07/06 10:32:55;;;;;;;;;;;;;;;28.95;50.10;99868.33;1765277;80;20460;-67
2021/07/06 10:35:41;;;;;;;;;;;;;;;28.96;50.80;99868.64;1759416;80;20173;-71
2021/07/06 10:38:28;;;;;;;;;;;;;;;28.97;51.09;99872.97;1756479;80;20409;-71
2021/07/06 10:41:03;;;;;;;;;;;;;;;28.91;50.88;99870.59;1766805;80;20405;-70
2021/07/06 10:43:32;;;;;;;;;;;;;;;28.84;50.67;99874.62;1768396;80;21889;-73
2021/07/06 10:46:25;;;;;;;;;;;;;;;28.75;51.46;99873.19;1751653;80;20169;-71
2021/07/06 10:49:14;;;;;;;;;;;;;;;28.74;51.20;99876.08;1756752;80;20102;-79
2021/07/06 10:51:45;;;;;;;;;;;;;;;28.73;51.49;99871.74;1746374;80;20128;-74
2021/07/06 10:54:22;;;;;;;;;;;;;;;28.69;50.85;99871.84;1766243;80;20153;-70
2021/07/06 10:56:51;;;;;;;;;;;;;;;28.67;51.29;99872.05;1745934;80;21191;-77
2021/07/06 10:59:40;;;;;;;;;;;;;;;28.69;51.21;99871.84;1745989;80;20151;-77
2021/07/06 11:02:15;;;;;;;;;;;;;;;28.66;50.54;99880.30;1761540;80;20460;-73
2021/07/06 11:04:45;;;;;;;;;;;;;;;28.62;50.86;99877.72;1765754;80;20121;-72
2021/07/06 11:07:34;;;;;;;;;;;;;;;28.60;50.92;99885.97;1744242;80;20169;-70
2021/07/06 11:10:06;;;;;;;;;;;;;;;28.60;51.09;99876.59;1740559;81;20120;-74
2021/07/06 11:12:44;;;;;;;;;;;;;;;28.74;51.28;99882.26;1757512;81;20513;-74
2021/07/06 11:15:28;;;;;;;;;;;;;;;28.88;51.25;99885.76;1745364;81;20099;-72
2021/07/06 11:18:00;;;;;;;;;;;;;;;29.01;51.35;99884.92;1741763;81;20399;-77
2021/07/06 11:20:42;;;;;;;;;;;;;;;29.07;49.84;99879.55;1755445;81;20074;-76
2021/07/06 11:23:22;;;;;;;;;;;;;;;29.08;50.19;99876.35;1756859;81;21838;-74
2021/07/06 11:25:48;;;;;;;;;;;;;;;29.07;50.85;99880.06;1743243;81;20208;-78
2021/07/06 11:28:26;;;;;;;;;;;;;;;29.09;50.91;99884.70;1744268;81;20373;-78
2021/07/06 11:31:02;;;;;;;;;;;;;;;29.07;51.51;99891.61;1742025;81;20102;-72
2021/07/06 11:33:37;;;;;;;;;;;;;;;29.03;51.33;99886.87;1757844;80;20153;-76
2021/07/06 11:36:09;;;;;;;;;;;;;;;29.02;50.81;99891.41;1751431;81;21106;-73
2021/07/06 11:38:42;;;;;;;;;;;;;;;29.03;51.03;99893.58;1746323;81;20156;-75
2021/07/06 11:41:11;;;;;;;;;;;;;;;29.05;51.35;99890.17;1726572;81;20130;-73
2021/07/06 11:43:43;;;;;;;;;;;;;;;29.01;51.48;99893.79;1752908;81;20115;-74
2021/07/06 11:46:11;;;;;;;;;;;;;;;28.97;50.87;99889.05;1731318;81;20162;-76
2021/07/06 11:48:40;;;;;;;;;;;;;;;28.95;50.88;99892.45;1729864;81;21017;-74
2021/07/06 11:51:13;;;;;;;;;;;;;;;28.91;51.60;99896.58;1737155;81;20465;-73
2021/07/06 11:53:43;;;;;;;;;;;;;;;28.88;51.73;99893.28;1733983;81;20456;-73
2021/07/06 11:56:11;;;;;;;;;;;;;;;28.85;50.96;99900.39;1741181;81;20088;-73
2021/07/06 11:58:40;;;;;;;;;;;;;;;28.82;51.66;99910.19;1736373;81;20143;-71
2021/07/06 12:01:09;;;;;;;;;;;;;;;28.75;52.03;99900.50;1743501;81;21152;-73
2021/07/06 12:03:37;;;;;;;;;;;;;;;28.65;52.83;99901.42;1731142;81;20197;-70
2021/07/06 12:06:10;;;;;;;;;;;;;;;28.57;52.39;99897.09;1732152;81;20229;-73
2021/07/06 12:08:59;;;;;;;;;;;;;;;28.46;52.47;99898.52;1747876;81;20101;-72
2021/07/06 12:11:27;;;;;;;;;;;;;;;28.36;53.06;99900.81;1765940;81;20182;-69
2021/07/06 12:13:57;;;;;;;;;;;;;;;28.25;52.44;99902.74;1762727;80;20680;-77
2021/07/06 12:16:29;;;;;;;;;;;;;;;28.18;52.62;99916.59;1755884;81;20112;-77
2021/07/06 12:19:02;;;;;;;;;;;;;;;28.07;52.98;99914.50;1729831;80;20173;-77
2021/07/06 12:21:33;;;;;;;;;;;;;;;27.95;53.01;99913.46;1759818;80;20163;-71
2021/07/06 12:24:10;;;;;;;;;;;;;;;27.89;53.96;99909.73;1763233;80;20943;-70
2021/07/06 12:26:38;;;;;;;;;;;;;;;27.88;54.02;99912.09;1743488;80;21892;-70
2021/07/06 12:29:05;;;;;;;;;;;;;;;27.87;52.54;99921.98;1752664;80;20124;-70